Time;durP1;ratioP1;P1;durP2;ratioP2;P2;SDS_P1;SDS_P2;PMS_P1;PMS_P2;Temp;Humidity;BMP_temperature;BMP_pressure;BME280_temperature;BME280_humidity;BME280_pressure;Samples;Min_cycle;Max_cycle;Signal;HPM_P1;HPM_P2
2024/01/27 00:01:20;;;;;;;25.23;15.25;;;5.20;80.50;;;;;;5045588;28;20033;-72
2024/01/27 00:03:47;;;;;;;26.08;15.98;;;5.30;80.30;;;;;;5047255;28;20105;-74
2024/01/27 00:06:15;;;;;;;26.38;15.43;;;5.50;80.10;;;;;;5043008;28;20029;-73
2024/01/27 00:08:42;;;;;;;29.75;15.48;;;5.40;79.50;;;;;;5033324;28;20642;-73
2024/01/27 00:11:11;;;;;;;29.15;17.05;;;5.40;79.60;;;;;;5034277;28;20077;-71
2024/01/27 00:13:38;;;;;;;27.98;16.33;;;5.20;80.30;;;;;;5017222;28;20122;-72
2024/01/27 00:16:06;;;;;;;26.20;16.50;;;5.00;80.90;;;;;;5033466;28;20095;-72
2024/01/27 00:18:36;;;;;;;27.35;14.98;;;4.90;81.70;;;;;;5033483;28;20040;-73
2024/01/27 00:21:05;;;;;;;58.03;31.25;;;5.20;81.90;;;;;;5026853;28;20443;-74
2024/01/27 00:23:35;;;;;;;41.25;22.20;;;5.20;81.80;;;;;;5032272;28;20057;-73
2024/01/27 00:26:02;;;;;;;36.75;18.40;;;5.20;80.50;;;;;;5022943;28;20395;-71
2024/01/27 00:28:30;;;;;;;25.08;17.75;;;5.10;81.00;;;;;;5030948;28;20037;-72
2024/01/27 00:30:57;;;;;;;28.80;16.13;;;5.00;81.40;;;;;;5047904;28;20033;-73
2024/01/27 00:33:25;;;;;;;26.13;16.10;;;4.70;81.90;;;;;;5039862;28;21346;-71
2024/01/27 00:35:52;;;;;;;29.00;16.40;;;4.80;82.60;;;;;;5030270;28;20060;-72
2024/01/27 00:38:20;;;;;;;40.42;23.05;;;4.80;82.10;;;;;;5044753;28;20037;-73
2024/01/27 00:40:47;;;;;;;39.97;23.23;;;4.80;83.30;;;;;;5036223;28;20025;-73
2024/01/27 00:43:21;;;;;;;31.90;16.92;;;4.80;82.80;;;;;;5049322;28;20033;-73
2024/01/27 00:45:52;;;;;;;28.00;16.48;;;4.50;83.60;;;;;;5045659;28;20126;-72
2024/01/27 00:48:20;;;;;;;28.85;17.58;;;4.50;83.70;;;;;;5030377;28;20048;-72
2024/01/27 00:50:48;;;;;;;24.30;16.73;;;4.40;82.80;;;;;;5036698;28;20488;-71
2024/01/27 00:53:16;;;;;;;37.50;22.75;;;4.30;84.10;;;;;;5019909;28;20029;-70
2024/01/27 00:55:43;;;;;;;38.90;22.63;;;4.20;84.10;;;;;;5036234;28;20052;-73
2024/01/27 00:58:11;;;;;;;48.08;25.90;;;4.30;83.70;;;;;;5043418;28;20044;-72
2024/01/27 01:00:38;;;;;;;46.20;25.25;;;4.10;84.50;;;;;;5043426;28;20037;-71
2024/01/27 01:03:06;;;;;;;41.55;25.55;;;4.20;84.90;;;;;;5025481;28;20611;-74
2024/01/27 01:05:34;;;;;;;45.22;25.30;;;4.40;84.10;;;;;;5044723;28;20037;-71
2024/01/27 01:08:01;;;;;;;43.38;24.77;;;4.40;83.20;;;;;;5046890;28;20033;-72
2024/01/27 01:10:29;;;;;;;37.63;23.77;;;4.40;84.40;;;;;;5042187;28;20122;-72
2024/01/27 01:12:56;;;;;;;42.05;24.13;;;4.60;83.50;;;;;;5044852;28;20575;-72
2024/01/27 01:15:24;;;;;;;43.42;23.42;;;4.50;83.20;;;;;;5031925;28;20033;-72
2024/01/27 01:17:51;;;;;;;45.03;24.17;;;4.60;83.30;;;;;;5046160;28;20412;-72
2024/01/27 01:20:19;;;;;;;38.55;23.15;;;4.70;83.40;;;;;;5027254;28;20044;-72
2024/01/27 01:22:47;;;;;;;37.25;22.33;;;4.70;83.50;;;;;;5046231;28;20064;-71
2024/01/27 01:25:14;;;;;;;41.33;23.42;;;4.80;83.40;;;;;;5027771;28;20140;-72
2024/01/27 01:27:42;;;;;;;34.55;22.00;;;5.00;83.00;;;;;;5035652;28;20135;-72
2024/01/27 01:30:09;;;;;;;37.38;21.88;;;5.00;82.90;;;;;;5019841;28;20056;-73
2024/01/27 01:32:37;;;;;;;37.30;23.52;;;5.00;83.30;;;;;;5028362;28;20060;-71
2024/01/27 01:35:05;;;;;;;45.13;26.70;;;5.00;83.50;;;;;;5034987;28;20040;-71
2024/01/27 01:37:32;;;;;;;38.03;22.08;;;5.10;83.70;;;;;;5045208;28;20400;-72
2024/01/27 01:40:00;;;;;;;30.88;19.92;;;4.90;82.80;;;;;;5047083;28;20380;-71
2024/01/27 01:42:27;;;;;;;33.40;20.15;;;4.70;83.90;;;;;;5044404;28;20037;-71
2024/01/27 01:45:14;;;;;;;30.08;19.45;;;4.90;82.80;;;;;;5028717;28;20036;-72
2024/01/27 01:47:42;;;;;;;31.70;19.40;;;4.20;84.40;;;;;;5043034;28;20037;-71
2024/01/27 01:50:10;;;;;;;28.83;18.40;;;4.20;84.00;;;;;;5044587;28;20040;-71
2024/01/27 01:52:38;;;;;;;28.83;17.60;;;4.30;85.50;;;;;;5043819;28;20492;-72
2024/01/27 01:55:06;;;;;;;30.95;19.40;;;4.60;84.10;;;;;;5049333;28;20419;-72
2024/01/27 01:57:34;;;;;;;34.25;20.65;;;4.80;83.40;;;;;;5019346;28;20396;-71
2024/01/27 02:00:01;;;;;;;32.85;20.10;;;5.00;82.80;;;;;;5048006;28;20033;-71
2024/01/27 02:02:28;;;;;;;33.70;18.38;;;4.90;83.00;;;;;;5049726;28;20386;-71
2024/01/27 02:04:56;;;;;;;35.30;20.85;;;4.90;83.30;;;;;;5048557;28;20029;-73
2024/01/27 02:07:23;;;;;;;41.10;21.15;;;4.50;83.90;;;;;;5048640;28;20103;-72
2024/01/27 02:09:51;;;;;;;31.73;20.38;;;4.40;85.00;;;;;;5046038;28;20045;-71
2024/01/27 02:12:18;;;;;;;37.58;20.25;;;4.80;84.60;;;;;;5004143;28;1273230;-72
2024/01/27 02:14:46;;;;;;;33.25;20.30;;;4.70;84.60;;;;;;5024697;28;20072;-72
2024/01/27 02:17:13;;;;;;;41.88;21.27;;;5.00;84.00;;;;;;5040032;28;20037;-72
2024/01/27 02:19:40;;;;;;;34.33;19.40;;;5.00;83.50;;;;;;5039876;28;20040;-72
2024/01/27 02:22:08;;;;;;;34.30;19.25;;;4.80;84.40;;;;;;5049614;28;20083;-72
2024/01/27 02:24:35;;;;;;;29.65;18.63;;;4.90;84.40;;;;;;5049642;28;20091;-72
2024/01/27 02:27:03;;;;;;;33.58;19.15;;;4.90;84.50;;;;;;5050593;28;20068;-73
2024/01/27 02:29:30;;;;;;;34.53;18.45;;;5.10;84.30;;;;;;5049141;28;20120;-72
2024/01/27 02:31:58;;;;;;;33.75;20.52;;;5.10;84.20;;;;;;5049623;28;20527;-73
2024/01/27 02:34:25;;;;;;;31.92;21.48;;;5.00;84.20;;;;;;5048678;28;20065;-73
2024/01/27 02:36:52;;;;;;;36.08;22.30;;;5.00;84.10;;;;;;5049839;28;20047;-73
2024/01/27 02:39:21;;;;;;;33.92;20.77;;;4.80;84.00;;;;;;5047682;28;20029;-71
2024/01/27 02:41:49;;;;;;;32.58;20.73;;;4.60;85.00;;;;;;5030924;28;20053;-73
2024/01/27 02:44:16;;;;;;;34.78;20.83;;;4.80;84.80;;;;;;5048929;28;20442;-72
2024/01/27 02:46:44;;;;;;;29.83;18.48;;;4.80;84.40;;;;;;5049365;28;20122;-73
2024/01/27 02:49:11;;;;;;;29.55;17.58;;;4.70;84.40;;;;;;5038481;28;20109;-74
2024/01/27 02:51:39;;;;;;;28.27;17.80;;;4.80;84.80;;;;;;5030269;28;20033;-72
2024/01/27 02:54:06;;;;;;;29.73;17.98;;;4.90;84.00;;;;;;5040059;28;20072;-74
2024/01/27 02:56:34;;;;;;;26.67;16.55;;;5.10;83.40;;;;;;5044507;28;20043;-73
2024/01/27 02:59:01;;;;;;;26.52;15.48;;;5.20;82.80;;;;;;5029197;28;20152;-73
2024/01/27 03:01:28;;;;;;;24.75;15.13;;;4.30;85.00;;;;;;5030484;28;20095;-73
2024/01/27 03:03:56;;;;;;;29.45;17.70;;;4.40;85.20;;;;;;5016042;28;20041;-72
2024/01/27 03:06:23;;;;;;;28.95;17.08;;;4.00;86.00;;;;;;5032062;28;20040;-73
2024/01/27 03:08:51;;;;;;;26.17;17.65;;;3.70;87.40;;;;;;5033286;28;20490;-74
2024/01/27 03:11:18;;;;;;;26.42;15.32;;;4.00;87.80;;;;;;5016852;28;20392;-71
2024/01/27 03:13:45;;;;;;;26.42;16.10;;;4.40;86.40;;;;;;5042508;28;20060;-72
2024/01/27 03:16:13;;;;;;;28.80;16.95;;;4.50;85.10;;;;;;5035498;28;20575;-74
2024/01/27 03:18:40;;;;;;;28.52;16.88;;;4.50;86.00;;;;;;5036421;28;20064;-71
2024/01/27 03:21:08;;;;;;;23.17;16.25;;;4.60;85.80;;;;;;5041320;28;20041;-71
2024/01/27 03:23:36;;;;;;;26.70;17.05;;;4.70;85.00;;;;;;5041747;28;20111;-72
2024/01/27 03:26:04;;;;;;;31.52;16.45;;;4.50;84.60;;;;;;5047941;28;20071;-72
2024/01/27 03:28:31;;;;;;;30.92;16.17;;;4.60;85.40;;;;;;5035123;28;20037;-71
2024/01/27 03:30:59;;;;;;;26.42;17.15;;;4.70;85.20;;;;;;5037430;28;20029;-70
2024/01/27 03:33:29;;;;;;;28.27;15.80;;;4.80;84.60;;;;;;5020900;28;20041;-73
2024/01/27 03:35:57;;;;;;;26.83;17.35;;;4.80;84.30;;;;;;5021664;28;20037;-73
2024/01/27 03:38:24;;;;;;;25.98;15.60;;;4.90;84.30;;;;;;5035157;28;20134;-71
2024/01/27 03:40:52;;;;;;;26.13;16.15;;;4.90;84.20;;;;;;5048213;28;20045;-72
2024/01/27 03:43:20;;;;;;;29.83;17.58;;;5.00;83.90;;;;;;5043000;28;20132;-73
2024/01/27 03:45:47;;;;;;;30.30;18.40;;;5.00;83.90;;;;;;5050390;28;20468;-69
2024/01/27 03:48:14;;;;;;;32.85;19.30;;;4.70;84.60;;;;;;5035917;28;20117;-71
2024/01/27 03:50:42;;;;;;;29.95;18.90;;;4.30;86.30;;;;;;5041864;28;20037;-72
2024/01/27 03:53:09;;;;;;;42.63;21.77;;;4.20;87.40;;;;;;5022387;28;20048;-71
2024/01/27 03:55:37;;;;;;;38.20;22.58;;;4.30;86.70;;;;;;5047728;28;20115;-72
2024/01/27 03:58:04;;;;;;;34.60;20.60;;;4.50;86.80;;;;;;5038967;28;20095;-70
2024/01/27 04:00:33;;;;;;;42.42;21.95;;;4.60;86.10;;;;;;5027141;28;20067;-72
2024/01/27 04:03:01;;;;;;;37.72;21.85;;;4.60;85.90;;;;;;5052833;28;20037;-72
2024/01/27 04:05:30;;;;;;;39.22;22.83;;;4.30;86.40;;;;;;5045967;28;20503;-72
2024/01/27 04:07:57;;;;;;;37.63;21.55;;;4.40;87.10;;;;;;5045315;28;20033;-71
2024/01/27 04:10:25;;;;;;;34.47;20.92;;;4.30;86.50;;;;;;5031327;28;20037;-73
2024/01/27 04:12:52;;;;;;;39.95;21.75;;;4.10;88.10;;;;;;5047990;28;20045;-72
2024/01/27 04:15:20;;;;;;;32.47;19.55;;;4.10;88.10;;;;;;5034936;28;20079;-72
2024/01/27 04:17:47;;;;;;;33.80;19.33;;;4.20;87.50;;;;;;5034008;28;20492;-71
2024/01/27 04:20:14;;;;;;;32.13;18.63;;;4.10;87.80;;;;;;5052185;28;20033;-72
2024/01/27 04:22:42;;;;;;;30.35;19.90;;;4.20;87.40;;;;;;5037889;28;20057;-72
2024/01/27 04:25:09;;;;;;;29.85;19.23;;;4.30;86.90;;;;;;5015612;28;20088;-72
2024/01/27 04:27:42;;;;;;;30.58;19.65;;;4.00;87.40;;;;;;5032631;28;20125;-72
2024/01/27 04:30:12;;;;;;;28.48;18.98;;;4.10;88.30;;;;;;5031624;28;20030;-71
2024/01/27 04:32:40;;;;;;;;;;;4.30;87.30;;;;;;5046307;28;20054;-72
2024/01/27 04:35:11;;;;;;;29.02;17.58;;;4.30;87.50;;;;;;5032644;28;20345;-71
2024/01/27 04:37:39;;;;;;;34.33;19.60;;;4.60;87.00;;;;;;5033393;28;20369;-71
2024/01/27 04:40:07;;;;;;;33.85;18.80;;;4.70;86.70;;;;;;5043868;28;20041;-72
2024/01/27 04:42:37;;;;;;;31.88;20.77;;;4.70;87.40;;;;;;5033625;28;20407;-71
2024/01/27 04:45:06;;;;;;;32.95;21.77;;;4.90;87.10;;;;;;5051756;28;20048;-71
2024/01/27 04:47:34;;;;;;;31.60;19.30;;;5.00;86.60;;;;;;5051266;28;20048;-72
2024/01/27 04:50:03;;;;;;;31.00;20.20;;;5.10;86.00;;;;;;5050763;28;20456;-72
2024/01/27 04:52:31;;;;;;;30.20;18.95;;;4.90;86.00;;;;;;5051876;28;20419;-72
2024/01/27 04:54:59;;;;;;;32.90;19.45;;;4.40;88.20;;;;;;5051502;28;20487;-72
2024/01/27 04:57:27;;;;;;;27.33;18.98;;;4.50;88.90;;;;;;5032507;28;20034;-71
2024/01/27 04:59:54;;;;;;;26.13;18.85;;;4.40;88.50;;;;;;5014301;28;20046;-71
2024/01/27 05:02:22;;;;;;;27.83;18.98;;;4.30;89.30;;;;;;5033633;28;20045;-71
2024/01/27 05:04:49;;;;;;;27.95;17.45;;;4.50;88.80;;;;;;5049591;28;20091;-72
2024/01/27 05:07:17;;;;;;;28.50;19.02;;;4.60;88.30;;;;;;5051642;28;20445;-71
2024/01/27 05:09:44;;;;;;;27.52;19.48;;;4.40;88.60;;;;;;5041722;28;20041;-72
2024/01/27 05:12:11;;;;;;;27.73;18.45;;;4.30;88.30;;;;;;5030867;28;20132;-71
2024/01/27 05:14:44;;;;;;;34.08;19.88;;;4.30;89.10;;;;;;5033068;28;20469;-72
2024/01/27 05:17:12;;;;;;;32.47;20.25;;;4.40;88.50;;;;;;5033727;28;20060;-72
2024/01/27 05:19:39;;;;;;;31.27;18.63;;;4.30;88.40;;;;;;5049169;28;20397;-70
2024/01/27 05:22:06;;;;;;;31.45;18.83;;;4.40;89.60;;;;;;5051337;28;20133;-73
2024/01/27 05:24:34;;;;;;;29.75;19.25;;;4.40;88.10;;;;;;5050552;28;20061;-73
2024/01/27 05:27:02;;;;;;;30.20;19.13;;;4.10;90.20;;;;;;5050847;28;20127;-71
2024/01/27 05:29:29;;;;;;;30.88;18.38;;;4.00;90.10;;;;;;5050430;28;20037;-73
2024/01/27 05:31:56;;;;;;;31.13;18.55;;;4.20;90.40;;;;;;5040275;28;20045;-73
2024/01/27 05:34:24;;;;;;;26.45;16.55;;;4.30;90.00;;;;;;5044141;28;20030;-70
2024/01/27 05:36:51;;;;;;;25.85;17.75;;;4.40;90.00;;;;;;5034309;28;20469;-70
2024/01/27 05:39:19;;;;;;;30.85;18.77;;;4.40;89.20;;;;;;5015314;28;20043;-72
2024/01/27 05:41:46;;;;;;;29.90;17.50;;;4.10;90.20;;;;;;5050898;28;20119;-71
2024/01/27 05:44:14;;;;;;;25.15;16.58;;;4.20;90.50;;;;;;5037568;28;20383;-70
2024/01/27 05:46:41;;;;;;;25.05;15.82;;;4.30;90.30;;;;;;5037632;28;20072;-70
2024/01/27 05:49:08;;;;;;;27.88;16.55;;;4.50;90.30;;;;;;5031000;28;20037;-70
2024/01/27 05:51:36;;;;;;;29.73;18.08;;;4.60;90.00;;;;;;5030848;28;20473;-70
2024/01/27 05:54:03;;;;;;;24.85;17.23;;;4.60;89.90;;;;;;5029884;28;20055;-71
2024/01/27 05:56:35;;;;;;;;;;;4.60;90.10;;;;;;5039117;28;20089;-71
2024/01/27 05:59:03;;;;;;;26.95;16.40;;;4.50;90.30;;;;;;5031700;28;19924;-71
2024/01/27 06:01:30;;;;;;;28.88;17.75;;;4.60;90.30;;;;;;5050159;28;20040;-70
2024/01/27 06:03:58;;;;;;;32.80;18.92;;;4.70;90.30;;;;;;5021258;28;20043;-70
2024/01/27 06:06:26;;;;;;;30.77;19.50;;;4.80;90.50;;;;;;5048882;28;20118;-71
2024/01/27 06:08:53;;;;;;;28.50;19.20;;;4.60;90.40;;;;;;5043913;28;20132;-71
2024/01/27 06:11:24;;;;;;;26.90;17.88;;;4.60;90.80;;;;;;5031390;28;20053;-70
2024/01/27 06:13:52;;;;;;;30.55;17.83;;;4.20;91.00;;;;;;5045360;28;20120;-71
2024/01/27 06:16:19;;;;;;;26.08;17.80;;;4.00;91.50;;;;;;5044840;28;20044;-71
2024/01/27 06:18:46;;;;;;;31.05;17.65;;;4.00;91.70;;;;;;5019052;28;20042;-72
2024/01/27 06:21:14;;;;;;;31.73;17.75;;;4.00;91.80;;;;;;5029958;28;20044;-71
2024/01/27 06:23:41;;;;;;;29.38;17.30;;;4.30;91.90;;;;;;5040389;28;20041;-72
2024/01/27 06:26:09;;;;;;;29.75;17.65;;;4.50;91.60;;;;;;5047873;28;20116;-72
2024/01/27 06:28:36;;;;;;;21.50;16.58;;;4.30;91.70;;;;;;5041012;28;20132;-71
2024/01/27 06:31:04;;;;;;;27.67;16.65;;;4.40;91.80;;;;;;5043998;28;20087;-72
2024/01/27 06:33:32;;;;;;;28.33;16.73;;;4.40;91.60;;;;;;5031054;28;20041;-72
2024/01/27 06:35:59;;;;;;;24.50;16.15;;;4.40;91.50;;;;;;5031368;28;20061;-72
2024/01/27 06:38:27;;;;;;;26.65;16.30;;;4.30;91.40;;;;;;5031334;28;20041;-72
2024/01/27 06:40:54;;;;;;;24.65;15.65;;;4.20;92.30;;;;;;5036365;28;20372;-72
2024/01/27 06:43:22;;;;;;;21.25;13.55;;;4.10;91.50;;;;;;5050753;28;20387;-71
2024/01/27 06:45:50;;;;;;;23.02;14.40;;;4.20;91.60;;;;;;5032276;28;20065;-72
2024/01/27 06:48:17;;;;;;;20.33;14.27;;;4.10;91.90;;;;;;5045060;28;20039;-72
2024/01/27 06:50:45;;;;;;;21.70;13.13;;;4.10;91.80;;;;;;5033824;28;20033;-70
2024/01/27 06:53:12;;;;;;;21.30;12.45;;;4.10;91.00;;;;;;5033207;28;20384;-72
2024/01/27 06:55:39;;;;;;;23.38;15.93;;;3.90;91.30;;;;;;5039614;28;20180;-71
2024/01/27 06:58:10;;;;;;;27.25;16.95;;;3.70;92.10;;;;;;5028718;28;20041;-71
2024/01/27 07:00:38;;;;;;;23.95;14.90;;;3.40;92.80;;;;;;5047893;28;20033;-71
2024/01/27 07:03:05;;;;;;;22.85;14.90;;;3.50;92.80;;;;;;5034030;28;20037;-71
2024/01/27 07:05:40;;;;;;;21.50;15.53;;;3.60;92.30;;;;;;5017163;28;20033;-71
2024/01/27 07:08:09;;;;;;;28.70;16.27;;;3.80;92.20;;;;;;5034041;28;20030;-72
2024/01/27 07:10:36;;;;;;;27.30;18.05;;;4.00;91.70;;;;;;5016273;28;20041;-71
2024/01/27 07:13:06;;;;;;;23.13;16.77;;;3.30;92.60;;;;;;5043374;28;20036;-71
2024/01/27 07:15:33;;;;;;;21.98;15.18;;;3.00;93.50;;;;;;5017510;28;20426;-72
2024/01/27 07:18:01;;;;;;;43.47;27.15;;;3.40;92.90;;;;;;5035961;28;20044;-71
2024/01/27 07:20:29;;;;;;;34.95;21.80;;;3.50;93.10;;;;;;5041758;28;20383;-70
2024/01/27 07:22:56;;;;;;;35.72;21.60;;;3.30;93.10;;;;;;5051457;28;20029;-71
2024/01/27 07:25:23;;;;;;;20.05;13.40;;;3.50;92.40;;;;;;5045869;28;20041;-71
2024/01/27 07:27:50;;;;;;;20.00;11.23;;;3.80;91.30;;;;;;5050943;28;20479;-71
2024/01/27 07:30:18;;;;;;;22.58;12.82;;;4.10;90.90;;;;;;5048388;28;20037;-72
2024/01/27 07:32:45;;;;;;;14.60;9.80;;;4.20;90.40;;;;;;5047903;28;20043;-72
2024/01/27 07:35:13;;;;;;;14.43;10.65;;;4.50;89.40;;;;;;5035513;28;20044;-72
2024/01/27 07:37:40;;;;;;;17.33;10.98;;;4.40;89.70;;;;;;5047658;28;20480;-72
2024/01/27 07:40:09;;;;;;;14.50;10.82;;;4.40;90.40;;;;;;5048263;28;20029;-72
2024/01/27 07:42:36;;;;;;;16.27;10.68;;;4.40;90.00;;;;;;5052906;28;20066;-72
2024/01/27 07:45:04;;;;;;;13.55;7.97;;;4.60;90.00;;;;;;5035293;28;20036;-72
2024/01/27 07:47:32;;;;;;;11.45;8.90;;;5.30;86.90;;;;;;5034959;28;20114;-71
2024/01/27 07:50:00;;;;;;;11.57;8.20;;;5.80;85.00;;;;;;5051720;28;20033;-70
2024/01/27 07:52:27;;;;;;;14.30;8.95;;;6.00;84.30;;;;;;5052431;28;20041;-70
2024/01/27 07:54:54;;;;;;;19.27;9.50;;;6.40;84.00;;;;;;5040762;28;20036;-70
2024/01/27 07:57:22;;;;;;;11.98;8.60;;;6.60;83.70;;;;;;5033612;28;20033;-72
2024/01/27 07:59:49;;;;;;;14.20;8.88;;;6.90;83.40;;;;;;5052782;28;20438;-71
2024/01/27 08:02:16;;;;;;;16.00;8.70;;;7.10;83.10;;;;;;5050868;28;20064;-71
2024/01/27 08:04:44;;;;;;;15.10;10.07;;;7.20;83.20;;;;;;5042624;28;20041;-71
2024/01/27 08:07:14;;;;;;;15.90;10.80;;;7.20;83.50;;;;;;5049845;28;20037;-73
2024/01/27 08:09:43;;;;;;;19.00;12.25;;;7.10;84.50;;;;;;5035055;28;20040;-73
2024/01/27 08:12:10;;;;;;;21.10;12.43;;;7.10;84.50;;;;;;5052672;28;20045;-72
2024/01/27 08:14:38;;;;;;;18.77;13.13;;;7.00;84.50;;;;;;5050930;28;20112;-71
2024/01/27 08:17:05;;;;;;;22.48;14.07;;;6.60;85.30;;;;;;5035018;28;20044;-71
2024/01/27 08:19:33;;;;;;;19.63;14.15;;;6.60;86.00;;;;;;5039425;28;20120;-72
2024/01/27 08:22:00;;;;;;;25.25;15.13;;;6.20;87.60;;;;;;5031789;28;20047;-71
2024/01/27 08:24:28;;;;;;;23.33;16.02;;;6.40;87.50;;;;;;5043333;28;20092;-72
2024/01/27 08:26:55;;;;;;;22.25;17.77;;;6.40;87.20;;;;;;5031176;28;20056;-72
2024/01/27 08:29:23;;;;;;;25.08;16.27;;;6.40;86.60;;;;;;5047616;28;20049;-72
2024/01/27 08:31:50;;;;;;;22.88;16.60;;;6.30;87.50;;;;;;5039132;28;20041;-73
2024/01/27 08:34:17;;;;;;;23.70;16.48;;;6.30;87.40;;;;;;5039711;28;20427;-71
2024/01/27 08:36:45;;;;;;;132.68;67.20;;;6.80;87.20;;;;;;5019373;28;20117;-73
2024/01/27 08:39:13;;;;;;;34.30;21.42;;;7.10;86.60;;;;;;5033493;28;20033;-75
2024/01/27 08:41:40;;;;;;;28.02;18.48;;;7.20;85.10;;;;;;5038079;28;20051;-74
2024/01/27 08:44:07;;;;;;;51.80;28.35;;;7.20;86.20;;;;;;5045215;28;20059;-74
2024/01/27 08:46:35;;;;;;;25.85;15.88;;;7.50;85.70;;;;;;5030070;28;20059;-73
2024/01/27 08:49:02;;;;;;;17.65;11.10;;;7.70;85.20;;;;;;5030184;28;20140;-71
2024/01/27 08:51:29;;;;;;;12.60;8.30;;;8.40;81.30;;;;;;5033368;28;20053;-70
2024/01/27 08:53:57;;;;;;;14.10;8.07;;;9.00;76.60;;;;;;5032614;28;20041;-70
2024/01/27 08:56:24;;;;;;;11.93;8.00;;;9.40;77.20;;;;;;5046964;28;20036;-72
2024/01/27 08:58:52;;;;;;;27.58;18.95;;;9.60;76.60;;;;;;5030301;28;20088;-72
2024/01/27 09:01:20;;;;;;;26.52;18.50;;;9.00;79.50;;;;;;5030334;28;20061;-70
2024/01/27 09:03:47;;;;;;;23.48;15.95;;;8.40;81.30;;;;;;5029827;28;20034;-71
2024/01/27 09:06:15;;;;;;;23.67;15.70;;;8.30;82.30;;;;;;5041650;28;20419;-73
2024/01/27 09:08:42;;;;;;;23.98;15.82;;;8.20;83.20;;;;;;5036513;28;20091;-71
2024/01/27 09:11:10;;;;;;;21.90;14.02;;;8.50;82.70;;;;;;5030911;28;20045;-71
2024/01/27 09:13:39;;;;;;;21.17;13.75;;;8.60;81.50;;;;;;5022030;28;20029;-72
2024/01/27 09:16:07;;;;;;;21.55;15.15;;;8.80;80.70;;;;;;5038106;28;20091;-71
2024/01/27 09:18:34;;;;;;;21.45;13.23;;;9.00;80.80;;;;;;5041688;28;20420;-71
2024/01/27 09:21:02;;;;;;;20.25;13.60;;;9.40;79.70;;;;;;5035473;28;20691;-71
2024/01/27 09:23:30;;;;;;;18.10;12.68;;;9.70;78.90;;;;;;5041780;28;20361;-72
2024/01/27 09:25:58;;;;;;;20.55;13.50;;;9.90;78.30;;;;;;5007718;28;20492;-72
2024/01/27 09:28:26;;;;;;;19.65;13.27;;;10.20;77.80;;;;;;5044899;28;20041;-72
2024/01/27 09:30:53;;;;;;;20.38;13.10;;;10.50;76.80;;;;;;5042177;28;20045;-72
2024/01/27 09:33:22;;;;;;;15.77;10.05;;;10.70;75.10;;;;;;5043976;28;20115;-71
2024/01/27 09:35:50;;;;;;;10.05;6.88;;;10.40;73.00;;;;;;5046475;28;20419;-71
2024/01/27 09:38:18;;;;;;;12.18;4.95;;;10.80;68.40;;;;;;5050044;28;20416;-72
2024/01/27 09:40:46;;;;;;;8.48;4.35;;;11.40;65.80;;;;;;5046540;28;20033;-72
2024/01/27 09:43:14;;;;;;;5.35;4.00;;;11.70;64.20;;;;;;5046876;28;20044;-72
2024/01/27 09:45:41;;;;;;;6.75;4.03;;;11.70;61.50;;;;;;5021091;28;20396;-72
2024/01/27 09:48:12;;;;;;;7.25;3.38;;;12.00;60.70;;;;;;5034341;28;20045;-72
2024/01/27 09:50:41;;;;;;;4.10;3.20;;;12.10;59.40;;;;;;5031020;28;20075;-72
2024/01/27 09:53:09;;;;;;;4.25;3.35;;;12.20;58.30;;;;;;5038294;28;20584;-72
2024/01/27 09:55:37;;;;;;;4.50;3.33;;;12.30;58.50;;;;;;5038413;28;20038;-73
2024/01/27 09:58:05;;;;;;;4.72;3.28;;;12.40;58.40;;;;;;5033186;28;20048;-72
2024/01/27 10:00:35;;;;;;;4.85;3.45;;;12.60;59.30;;;;;;5040668;28;20476;-71
2024/01/27 10:03:04;;;;;;;5.18;3.20;;;12.50;59.30;;;;;;5046506;28;20048;-73
2024/01/27 10:05:32;;;;;;;5.13;3.60;;;12.70;58.70;;;;;;5029512;28;20375;-71
2024/01/27 10:08:00;;;;;;;5.50;3.63;;;12.80;58.50;;;;;;5030074;28;20387;-71
2024/01/27 10:10:30;;;;;;;5.97;3.50;;;12.80;58.30;;;;;;5040374;28;20108;-72
2024/01/27 10:13:01;;;;;;;5.22;3.30;;;13.00;58.40;;;;;;5041668;28;20112;-72
2024/01/27 10:15:28;;;;;;;;;;;13.20;58.10;;;;;;5047453;28;20112;-73
2024/01/27 10:18:06;;;;;;;6.38;3.30;;;13.20;58.30;;;;;;5045049;28;19923;-74
2024/01/27 10:20:34;;;;;;;4.45;3.15;;;13.30;57.10;;;;;;5051888;28;20033;-74
2024/01/27 10:23:11;;;;;;;5.07;3.08;;;13.30;57.10;;;;;;5031385;28;20041;-72
2024/01/27 10:25:40;;;;;;;5.25;3.78;;;13.40;56.40;;;;;;5044112;28;20379;-74
2024/01/27 10:28:10;;;;;;;30.08;13.43;;;13.50;56.30;;;;;;5034512;28;20106;-72
2024/01/27 10:30:38;;;;;;;6.88;4.63;;;13.70;56.10;;;;;;5024624;28;20429;-73
2024/01/27 10:33:13;;;;;;;5.20;3.58;;;13.80;55.30;;;;;;5050833;28;20059;-72
2024/01/27 10:35:41;;;;;;;5.03;3.00;;;13.40;55.30;;;;;;5051569;28;20041;-71
2024/01/27 10:38:09;;;;;;;7.90;3.08;;;13.70;55.50;;;;;;5028723;28;20060;-74
2024/01/27 10:40:37;;;;;;;4.55;3.08;;;13.80;55.40;;;;;;5047187;28;20069;-74
2024/01/27 10:43:08;;;;;;;30.50;17.60;;;13.90;54.80;;;;;;5046057;28;20463;-71
2024/01/27 10:45:40;;;;;;;54.83;29.08;;;13.90;55.60;;;;;;5034670;28;20041;-72
2024/01/27 10:48:10;;;;;;;7.97;5.25;;;14.10;55.00;;;;;;5038801;28;20041;-70
2024/01/27 10:50:40;;;;;;;4.68;3.20;;;14.20;54.70;;;;;;5038602;28;20044;-71
2024/01/27 10:53:39;;;;;;;6.95;3.50;;;14.20;54.70;;;;;;5045286;28;20056;-72
2024/01/27 10:56:10;;;;;;;5.90;3.10;;;14.30;54.80;;;;;;5046152;28;20068;-74
2024/01/27 10:58:43;;;;;;;5.05;3.17;;;14.70;54.30;;;;;;5046492;28;20136;-74
2024/01/27 11:01:14;;;;;;;4.30;2.90;;;14.80;54.70;;;;;;5034718;28;20489;-74
2024/01/27 11:03:43;;;;;;;3.92;2.83;;;14.70;54.80;;;;;;5050926;28;20037;-74
2024/01/27 11:06:12;;;;;;;5.38;2.90;;;14.80;53.10;;;;;;5046254;28;20130;-72
2024/01/27 11:08:40;;;;;;;4.53;2.88;;;14.70;54.20;;;;;;5050882;28;20040;-72
2024/01/27 11:11:11;;;;;;;4.53;2.70;;;14.80;53.60;;;;;;5053568;28;20041;-76
2024/01/27 11:13:39;;;;;;;5.15;2.55;;;15.30;53.60;;;;;;5042531;28;20037;-71
2024/01/27 11:16:16;;;;;;;6.35;3.20;;;15.80;52.40;;;;;;5036052;28;20486;-76
2024/01/27 11:18:45;;;;;;;4.93;2.70;;;14.50;55.10;;;;;;5027639;28;20071;-74
2024/01/27 11:21:17;;;;;;;3.22;2.30;;;15.80;53.50;;;;;;5041874;28;20405;-72
2024/01/27 11:23:47;;;;;;;4.30;2.20;;;17.10;50.80;;;;;;5048111;28;20039;-74
2024/01/27 11:26:22;;;;;;;8.27;2.88;;;17.50;49.80;;;;;;5046264;28;20061;-73
2024/01/27 11:28:50;;;;;;;4.95;1.85;;;17.40;48.80;;;;;;5023148;28;20052;-71
2024/01/27 11:31:19;;;;;;;3.63;1.70;;;18.50;49.30;;;;;;5050244;28;20068;-73
2024/01/27 11:33:51;;;;;;;3.28;1.40;;;20.00;47.40;;;;;;5046328;28;20120;-73
2024/01/27 11:36:24;;;;;;;4.97;1.92;;;19.60;47.10;;;;;;5048281;28;20523;-72
2024/01/27 11:38:53;;;;;;;4.03;1.90;;;17.70;48.60;;;;;;5031272;28;20396;-74
2024/01/27 11:41:28;;;;;;;3.13;1.30;;;17.20;50.90;;;;;;5050273;28;20072;-75
2024/01/27 11:43:57;;;;;;;4.70;1.77;;;15.20;51.10;;;;;;5043755;28;20026;-73
2024/01/27 11:46:25;;;;;;;4.43;1.65;;;13.20;52.80;;;;;;5023440;28;20056;-72
2024/01/27 11:48:53;;;;;;;4.50;1.95;;;14.30;52.60;;;;;;5032858;28;20044;-76
2024/01/27 11:51:22;;;;;;;5.97;1.90;;;15.50;50.50;;;;;;5020908;28;20076;-73
2024/01/27 11:53:50;;;;;;;3.65;2.08;;;16.30;49.50;;;;;;5042208;28;20043;-73
2024/01/27 11:56:18;;;;;;;3.33;1.63;;;16.50;49.10;;;;;;5049457;28;20063;-73
2024/01/27 11:58:49;;;;;;;6.22;2.08;;;15.30;49.70;;;;;;5036332;28;20492;-72
2024/01/27 12:01:18;;;;;;;5.85;3.38;;;15.30;51.20;;;;;;5033903;28;20676;-73
2024/01/27 12:03:45;;;;;;;5.97;3.47;;;14.80;51.00;;;;;;5044855;28;20040;-73
2024/01/27 12:06:13;;;;;;;4.35;2.40;;;14.80;51.60;;;;;;5044059;28;20512;-72
2024/01/27 12:08:46;;;;;;;5.45;2.40;;;14.80;52.00;;;;;;5041849;28;20038;-73
2024/01/27 12:11:16;;;;;;;6.20;2.35;;;15.40;51.40;;;;;;5044441;28;20041;-71
2024/01/27 12:13:51;;;;;;;4.07;2.10;;;15.50;51.30;;;;;;5052761;28;20061;-72
2024/01/27 12:16:19;;;;;;;3.92;2.50;;;15.30;51.40;;;;;;5049048;28;20037;-71
2024/01/27 12:18:46;;;;;;;4.93;2.60;;;14.50;52.20;;;;;;5050022;28;20365;-73
2024/01/27 12:21:19;;;;;;;4.03;2.50;;;15.10;52.00;;;;;;5031493;28;20048;-73
2024/01/27 12:23:53;;;;;;;4.93;2.85;;;15.00;51.40;;;;;;5047581;28;20033;-73
2024/01/27 12:26:31;;;;;;;8.82;2.80;;;14.90;51.10;;;;;;5043901;28;20040;-73
2024/01/27 12:29:00;;;;;;;7.38;3.60;;;15.40;50.40;;;;;;5021635;28;20034;-78
2024/01/27 12:31:27;;;;;;;3.85;2.80;;;14.60;50.80;;;;;;5031694;28;20048;-77
2024/01/27 12:33:58;;;;;;;5.03;2.88;;;15.20;49.40;;;;;;5040388;28;20042;-77
2024/01/27 12:36:27;;;;;;;6.43;2.53;;;15.60;48.40;;;;;;5030983;28;20415;-75
2024/01/27 12:38:58;;;;;;;4.15;2.50;;;16.10;47.80;;;;;;5044183;28;20047;-74
2024/01/27 12:41:27;;;;;;;4.20;2.40;;;15.60;46.90;;;;;;5024649;28;20400;-80
2024/01/27 12:43:55;;;;;;;40.83;23.52;;;15.40;46.80;;;;;;5047053;28;20033;-79
2024/01/27 12:46:23;;;;;;;10.05;6.13;;;16.30;47.70;;;;;;5037021;28;20036;-83